23kousinmaru — JD2248 — position and weather

sailwx.info

Track history (hours):
 
Tides and Currents Weather Stations Pressure Air Temp Water Temp Dewpoint Dewpoint Depression Visibility Wind Speed Wind Dir Waves Ship Positions

23kousinmaru

Last reported at 2017-Nov-18 20:59 UTC. Time now 2017-Nov-18 21:10 UTC.
Position N 34°34' E 135°02'.

Length 68 m; draft 4.3 m.

Type: Tanker. MMSI: 431501853.

Date/timePositionNaut miles runAvg speedWind from/ knotsBaromVisibWave heightAir tempDewpointWater temp
2017-Nov-18 20:59N 34°34' E 135°02'4 8.1
2017-Nov-18 20:30N 34°37' E 134°60'  
2017-Nov-15 04:37N 35°06' E 139°37'212.9
2017-Nov-15 04:30N 35°06' E 139°39'612.6
2017-Nov-15 04:00N 35°11' E 139°44'611.5
2017-Nov-15 03:30N 35°16' E 139°45'612.3
2017-Nov-15 03:00N 35°22' E 139°42'612.0
2017-Nov-15 02:31N 35°27' E 139°46'4 0.9
2017-Nov-14 22:02N 35°31' E 139°46'0 4.4
2017-Nov-14 22:00N 35°30' E 139°47'2 0.6
2017-Nov-14 18:01N 35°29' E 139°49'0 0.0
2017-Nov-14 18:00N 35°29' E 139°49'0 0.0
2017-Nov-14 16:17N 35°29' E 139°49'0 0.0
2017-Nov-14 07:43N 35°29' E 139°49'2 9.6
2017-Nov-14 07:30N 35°27' E 139°48'612.4
2017-Nov-14 07:01N 35°22' E 139°45'611.0
2017-Nov-14 06:30N 35°16' E 139°46'611.8
2017-Nov-14 06:00N 35°10' E 139°46'612.3
2017-Nov-14 05:30N 35°05' E 139°41'713.0
2017-Nov-14 05:00N 35°01' E 139°35'612.9
2017-Nov-14 04:30N 34°57' E 139°29'  
Track history (hours):
 
Tides and Currents Weather Stations Pressure Air Temp Water Temp Dewpoint Dewpoint Depression Visibility Wind Speed Wind Dir Waves Ship Positions

23kousinmaru

Last reported at 2017-Nov-18 20:59 UTC. Time now 2017-Nov-18 21:10 UTC.
Position N 34°34' E 135°02'.

Length 68 m; draft 4.3 m.

Type: Tanker. MMSI: 431501853.

Date/timePositionNaut miles runAvg speedWind from/ knotsBaromVisibWave heightAir tempDewpointWater temp
2017-Nov-18 20:59N 34°34' E 135°02'4 8.1
2017-Nov-18 20:30N 34°37' E 134°60'  
2017-Nov-15 04:37N 35°06' E 139°37'212.9
2017-Nov-15 04:30N 35°06' E 139°39'612.6
2017-Nov-15 04:00N 35°11' E 139°44'611.5
2017-Nov-15 03:30N 35°16' E 139°45'612.3
2017-Nov-15 03:00N 35°22' E 139°42'612.0
2017-Nov-15 02:31N 35°27' E 139°46'4 0.9
2017-Nov-14 22:02N 35°31' E 139°46'0 4.4
2017-Nov-14 22:00N 35°30' E 139°47'2 0.6
2017-Nov-14 18:01N 35°29' E 139°49'0 0.0
2017-Nov-14 18:00N 35°29' E 139°49'0 0.0
2017-Nov-14 16:17N 35°29' E 139°49'0 0.0
2017-Nov-14 07:43N 35°29' E 139°49'2 9.6
2017-Nov-14 07:30N 35°27' E 139°48'612.4
2017-Nov-14 07:01N 35°22' E 139°45'611.0
2017-Nov-14 06:30N 35°16' E 139°46'611.8
2017-Nov-14 06:00N 35°10' E 139°46'612.3
2017-Nov-14 05:30N 35°05' E 139°41'713.0
2017-Nov-14 05:00N 35°01' E 139°35'612.9
2017-Nov-14 04:30N 34°57' E 139°29'  

Dump ship's entire track history